createdAt,value
2023-03-03T00:01:43.001Z,38.26
2023-03-03T00:04:13.178Z,38.07
2023-03-03T00:06:41.659Z,38.22
2023-03-03T00:09:10.342Z,38.20
2023-03-03T00:11:39.098Z,38.08
2023-03-03T00:14:22.252Z,38.15
2023-03-03T00:16:51.139Z,38.25
2023-03-03T00:19:21.382Z,38.19
2023-03-03T00:21:51.193Z,38.17
2023-03-03T00:24:22.512Z,38.00
2023-03-03T00:26:51.691Z,38.13
2023-03-03T00:29:35.945Z,38.22
2023-03-03T00:32:24.916Z,37.89
2023-03-03T00:34:56.017Z,37.87
2023-03-03T00:37:30.878Z,38.01
2023-03-03T00:40:15.818Z,38.01
2023-03-03T00:42:46.608Z,38.23
2023-03-03T00:45:33.252Z,37.98
2023-03-03T00:48:01.787Z,38.00
2023-03-03T00:50:35.462Z,37.87
2023-03-03T00:53:13.729Z,37.85
2023-03-03T00:55:42.361Z,37.78
2023-03-03T00:58:11.012Z,37.84
2023-03-03T01:00:39.705Z,37.87
2023-03-03T01:03:10.999Z,37.92
2023-03-03T01:05:40.884Z,37.73
2023-03-03T01:08:09.490Z,37.85
2023-03-03T01:10:40.985Z,37.74
2023-03-03T01:13:09.650Z,37.74
2023-03-03T01:15:38.267Z,37.79
2023-03-03T01:18:06.922Z,37.67
2023-03-03T01:20:35.646Z,37.83
2023-03-03T01:23:05.711Z,37.75
2023-03-03T01:25:34.351Z,37.55
2023-03-03T01:28:03.092Z,37.75
2023-03-03T01:30:32.028Z,37.75
2023-03-03T01:33:00.566Z,37.58
2023-03-03T01:35:30.019Z,37.58
2023-03-03T01:37:59.067Z,37.74
2023-03-03T01:40:30.680Z,37.60
2023-03-03T01:43:01.259Z,37.60
2023-03-03T01:45:30.517Z,37.61
2023-03-03T01:48:02.621Z,37.46
2023-03-03T01:50:42.302Z,37.57
2023-03-03T01:53:15.656Z,37.41
2023-03-03T01:55:45.970Z,37.36
2023-03-03T01:58:18.340Z,37.42
2023-03-03T02:00:50.625Z,37.32
2023-03-03T02:03:20.160Z,37.31
2023-03-03T02:05:48.644Z,37.33
2023-03-03T02:08:18.395Z,37.39
2023-03-03T02:10:48.513Z,37.41
2023-03-03T02:13:17.126Z,37.52
2023-03-03T02:15:45.678Z,37.37
2023-03-03T02:18:16.295Z,37.47
2023-03-03T02:20:53.323Z,37.48
2023-03-03T02:23:25.539Z,37.25
2023-03-03T02:26:08.006Z,37.30
2023-03-03T02:28:37.788Z,37.40
2023-03-03T02:31:10.983Z,37.31
2023-03-03T02:33:39.646Z,37.22
2023-03-03T02:36:08.707Z,37.22
2023-03-03T02:38:40.213Z,37.20
2023-03-03T02:41:14.264Z,37.33
2023-03-03T02:43:48.238Z,37.19
2023-03-03T02:46:17.154Z,37.28
2023-03-03T02:48:45.678Z,37.23
2023-03-03T02:51:14.306Z,37.24
2023-03-03T02:53:42.862Z,37.17
2023-03-03T02:56:12.905Z,37.23
2023-03-03T02:58:41.442Z,37.15
2023-03-03T03:01:10.090Z,37.33
2023-03-03T03:03:38.763Z,37.08
2023-03-03T03:06:07.813Z,37.31
2023-03-03T03:08:36.602Z,37.12
2023-03-03T03:11:05.962Z,37.10
2023-03-03T03:13:36.072Z,37.19
2023-03-03T03:16:04.905Z,37.07
2023-03-03T03:18:33.540Z,37.19
2023-03-03T03:21:09.246Z,37.14
2023-03-03T03:23:37.870Z,36.99
2023-03-03T03:26:06.913Z,37.07
2023-03-03T03:28:36.969Z,37.02
2023-03-03T03:31:06.487Z,36.87
2023-03-03T03:33:35.203Z,36.90
2023-03-03T03:36:04.708Z,36.95
2023-03-03T03:38:33.500Z,36.89
2023-03-03T03:41:02.064Z,37.01
2023-03-03T03:43:30.548Z,37.00
2023-03-03T03:46:00.677Z,36.74
2023-03-03T03:48:29.288Z,36.84
2023-03-03T03:50:58.250Z,37.02
2023-03-03T03:53:26.976Z,37.00
2023-03-03T03:55:55.608Z,36.87
2023-03-03T03:58:24.157Z,36.98
2023-03-03T04:00:52.727Z,36.85
2023-03-03T04:03:22.939Z,36.86
2023-03-03T04:05:53.921Z,36.85
2023-03-03T04:08:22.527Z,36.93
2023-03-03T04:10:51.169Z,37.00
2023-03-03T04:13:19.757Z,36.89
2023-03-03T04:15:48.433Z,36.94
2023-03-03T04:18:16.976Z,36.82
2023-03-03T04:20:46.938Z,36.68
2023-03-03T04:23:15.596Z,36.77
2023-03-03T04:25:44.265Z,36.74
2023-03-03T04:28:12.863Z,36.77
2023-03-03T04:30:41.662Z,36.72
2023-03-03T04:33:10.227Z,36.78
2023-03-03T04:35:38.958Z,36.75
2023-03-03T04:38:08.914Z,36.63
2023-03-03T04:40:37.388Z,36.77
2023-03-03T04:43:06.290Z,36.71
2023-03-03T04:45:35.040Z,36.58
2023-03-03T04:48:03.553Z,36.69
2023-03-03T04:50:32.208Z,36.78
2023-03-03T04:53:00.799Z,36.69
2023-03-03T04:55:30.835Z,36.50
2023-03-03T04:57:59.429Z,36.61
2023-03-03T05:00:27.995Z,36.57
2023-03-03T05:02:56.641Z,36.57
2023-03-03T05:05:25.296Z,36.55
2023-03-03T05:07:53.894Z,36.53
2023-03-03T05:10:22.643Z,36.42
2023-03-03T05:12:52.676Z,36.66
2023-03-03T05:15:21.305Z,36.64
2023-03-03T05:17:49.835Z,36.46
2023-03-03T05:20:18.673Z,36.54
2023-03-03T05:22:47.352Z,36.47
2023-03-03T05:25:16.145Z,36.56
2023-03-03T05:27:44.892Z,36.53
2023-03-03T05:30:15.879Z,36.42
2023-03-03T05:32:44.506Z,36.38
2023-03-03T05:35:13.130Z,36.38
2023-03-03T05:37:46.978Z,36.39
2023-03-03T05:40:16.361Z,36.60
2023-03-03T05:42:44.955Z,36.32
2023-03-03T05:45:14.940Z,36.39
2023-03-03T05:47:43.531Z,36.36
2023-03-03T05:50:13.036Z,36.50
2023-03-03T05:52:41.570Z,36.36
2023-03-03T05:55:11.983Z,36.51
2023-03-03T05:57:40.619Z,36.42
2023-03-03T06:00:12.666Z,36.32
2023-03-03T06:02:42.731Z,36.27
2023-03-03T06:05:11.715Z,36.33
2023-03-03T06:07:40.424Z,36.32
2023-03-03T06:10:10.066Z,36.24
2023-03-03T06:12:39.260Z,36.31
2023-03-03T06:15:09.442Z,36.14
2023-03-03T06:17:38.153Z,36.21
2023-03-03T06:20:10.079Z,36.32
2023-03-03T06:22:38.919Z,36.33
2023-03-03T06:25:14.734Z,36.28
2023-03-03T06:27:43.324Z,36.45
2023-03-03T06:30:13.987Z,36.44
2023-03-03T06:32:42.677Z,36.32
2023-03-03T06:35:12.855Z,36.48
2023-03-03T06:37:41.459Z,36.56
2023-03-03T06:40:11.982Z,36.43
2023-03-03T06:42:40.505Z,36.94
2023-03-03T06:45:10.572Z,36.83
2023-03-03T06:47:39.187Z,36.83
2023-03-03T06:50:08.960Z,36.81
2023-03-03T06:52:38.979Z,36.96
2023-03-03T06:55:14.195Z,36.74
2023-03-03T06:57:42.790Z,36.88
2023-03-03T07:00:20.262Z,37.00
2023-03-03T07:02:49.076Z,36.49
2023-03-03T07:05:19.113Z,36.13
2023-03-03T07:07:49.126Z,35.81
2023-03-03T07:10:23.910Z,36.02
2023-03-03T07:12:52.529Z,36.79
2023-03-03T07:15:23.716Z,37.19
2023-03-03T07:17:54.499Z,36.88
2023-03-03T07:20:24.185Z,37.04
2023-03-03T07:22:54.151Z,36.99
2023-03-03T07:25:31.977Z,36.99
2023-03-03T07:28:03.047Z,36.91
2023-03-03T07:30:31.878Z,37.04
2023-03-03T07:33:00.524Z,36.92
2023-03-03T07:35:38.788Z,37.07
2023-03-03T07:38:26.614Z,36.92
2023-03-03T07:40:56.248Z,36.88
2023-03-03T07:43:36.602Z,36.73
2023-03-03T07:46:34.950Z,36.70
2023-03-03T07:49:03.592Z,36.60
2023-03-03T07:51:41.920Z,37.04
2023-03-03T07:54:29.711Z,36.89
2023-03-03T07:56:59.049Z,37.00
2023-03-03T07:59:27.840Z,36.97
2023-03-03T08:01:58.857Z,36.96
2023-03-03T08:04:31.436Z,37.03
2023-03-03T08:07:00.521Z,37.17
2023-03-03T08:09:52.247Z,37.06
2023-03-03T08:12:35.436Z,37.04
2023-03-03T08:15:25.019Z,37.14
2023-03-03T08:17:55.021Z,36.95
2023-03-03T08:20:49.510Z,37.04
2023-03-03T08:23:19.316Z,36.96
2023-03-03T08:25:49.644Z,36.70
2023-03-03T08:28:18.369Z,36.76
2023-03-03T08:30:47.191Z,36.81
2023-03-03T08:33:16.077Z,36.81
2023-03-03T08:35:45.215Z,36.81
2023-03-03T08:38:14.644Z,36.77
2023-03-03T08:40:43.329Z,36.61
2023-03-03T08:43:17.259Z,36.49
2023-03-03T08:45:46.311Z,36.61
2023-03-03T08:48:14.969Z,36.66
2023-03-03T08:50:43.795Z,36.47
2023-03-03T08:53:12.832Z,36.40
2023-03-03T08:55:41.445Z,36.74
2023-03-03T08:58:10.081Z,36.48
2023-03-03T09:00:40.861Z,36.51
2023-03-03T09:03:09.711Z,36.44
2023-03-03T09:05:39.179Z,36.42
2023-03-03T09:08:10.864Z,36.67
2023-03-03T09:10:39.524Z,36.66
2023-03-03T09:13:12.852Z,36.53
2023-03-03T09:15:43.119Z,36.62
2023-03-03T09:18:19.145Z,36.67
2023-03-03T09:20:48.351Z,36.96
2023-03-03T09:23:35.787Z,36.75
2023-03-03T09:26:31.054Z,37.06
2023-03-03T09:29:19.923Z,37.13
2023-03-03T09:31:51.811Z,37.35
2023-03-03T09:34:23.797Z,38.12
2023-03-03T09:36:53.315Z,37.76
2023-03-03T09:39:23.079Z,37.47
2023-03-03T09:42:10.340Z,36.48
2023-03-03T09:45:21.977Z,37.22
2023-03-03T09:48:29.176Z,37.56
2023-03-03T09:51:12.222Z,37.62
2023-03-03T09:53:52.014Z,37.46
2023-03-03T09:56:24.303Z,37.23
2023-03-03T09:59:04.302Z,37.34
2023-03-03T10:01:48.195Z,37.51
2023-03-03T10:04:44.033Z,37.44
2023-03-03T10:07:26.459Z,37.84
2023-03-03T10:10:12.291Z,38.32
2023-03-03T10:12:44.570Z,38.66
2023-03-03T10:15:27.029Z,38.91
2023-03-03T10:17:57.525Z,38.79
2023-03-03T10:20:51.178Z,38.71
2023-03-03T10:23:23.480Z,38.65
2023-03-03T10:26:01.071Z,38.10
2023-03-03T10:29:00.938Z,38.26
2023-03-03T10:31:38.679Z,38.85
2023-03-03T10:34:17.429Z,38.88
2023-03-03T10:36:55.246Z,38.64
2023-03-03T10:39:53.473Z,37.55
2023-03-03T10:42:33.455Z,38.00
2023-03-03T10:45:54.961Z,38.22
2023-03-03T10:48:44.055Z,38.58
2023-03-03T10:51:22.239Z,39.54
2023-03-03T10:54:00.989Z,38.75
2023-03-03T10:56:51.748Z,38.92
2023-03-03T10:59:36.344Z,39.26
2023-03-03T11:02:08.917Z,39.23
2023-03-03T11:04:49.700Z,39.53
2023-03-03T11:07:21.958Z,39.32
2023-03-03T11:10:26.079Z,39.64
2023-03-03T11:13:03.942Z,38.86
2023-03-03T11:15:41.780Z,39.00
2023-03-03T11:18:23.828Z,39.01
2023-03-03T11:20:58.606Z,38.70
2023-03-03T11:24:10.986Z,38.80
2023-03-03T11:27:19.644Z,38.66
2023-03-03T11:30:04.320Z,38.55
2023-03-03T11:32:39.850Z,38.52
2023-03-03T11:35:23.763Z,38.41
2023-03-03T11:38:01.577Z,38.58
2023-03-03T11:40:37.469Z,38.71
2023-03-03T11:43:13.111Z,38.50
2023-03-03T11:45:44.048Z,38.45
2023-03-03T11:48:18.130Z,38.42
2023-03-03T11:50:53.774Z,38.28
2023-03-03T11:53:41.235Z,38.05
2023-03-03T11:56:20.443Z,38.16
2023-03-03T11:58:55.530Z,38.20
2023-03-03T12:01:27.291Z,37.97
2023-03-03T12:03:57.902Z,38.00
2023-03-03T12:06:31.327Z,38.01
2023-03-03T12:09:10.673Z,37.80
2023-03-03T12:11:47.651Z,37.08
2023-03-03T12:14:29.263Z,37.63
2023-03-03T12:16:59.642Z,37.56
2023-03-03T12:19:36.630Z,37.78
2023-03-03T12:22:29.775Z,37.73
2023-03-03T12:25:20.474Z,37.95
2023-03-03T12:27:54.542Z,37.85
2023-03-03T12:30:44.087Z,38.12
2023-03-03T12:33:23.729Z,37.95
2023-03-03T12:35:59.797Z,37.96
2023-03-03T12:38:36.715Z,38.12
2023-03-03T12:41:09.471Z,38.06
2023-03-03T12:43:57.678Z,38.09
2023-03-03T12:46:35.415Z,38.00
2023-03-03T12:49:04.207Z,38.08
2023-03-03T12:51:42.013Z,38.00
2023-03-03T12:54:25.304Z,38.03
2023-03-03T12:56:57.600Z,37.92
2023-03-03T12:59:33.749Z,37.80
2023-03-03T13:02:31.044Z,37.71
2023-03-03T13:05:05.215Z,37.94
2023-03-03T13:07:38.313Z,37.84
2023-03-03T13:10:15.098Z,37.87
2023-03-03T13:12:46.260Z,37.73
2023-03-03T13:15:18.350Z,37.73
2023-03-03T13:17:57.076Z,37.73
2023-03-03T13:20:33.096Z,37.58
2023-03-03T13:23:07.163Z,37.64
2023-03-03T13:25:47.529Z,37.56
2023-03-03T13:28:26.208Z,37.59
2023-03-03T13:30:59.066Z,37.47
2023-03-03T13:33:30.544Z,37.63
2023-03-03T13:36:01.278Z,37.57
2023-03-03T13:38:31.542Z,37.53
2023-03-03T13:41:09.534Z,37.34
2023-03-03T13:43:44.578Z,37.53
2023-03-03T13:46:18.036Z,37.49
2023-03-03T13:49:04.338Z,37.18
2023-03-03T13:51:42.186Z,37.35
2023-03-03T13:54:27.180Z,37.46
2023-03-03T13:57:24.455Z,37.20
2023-03-03T13:59:58.612Z,37.35
2023-03-03T14:03:10.747Z,37.35
2023-03-03T14:05:43.222Z,37.28
2023-03-03T14:08:20.585Z,37.27
2023-03-03T14:10:55.889Z,37.21
2023-03-03T14:13:28.114Z,37.20
2023-03-03T14:15:59.525Z,37.19
2023-03-03T14:18:31.931Z,37.19
2023-03-03T14:21:06.002Z,37.24
2023-03-03T14:23:44.116Z,36.91
2023-03-03T14:26:13.037Z,37.05
2023-03-03T14:28:43.850Z,37.12
2023-03-03T14:31:19.731Z,36.93
2023-03-03T14:33:58.998Z,36.95
2023-03-03T14:36:32.514Z,37.01
2023-03-03T14:39:01.144Z,36.80
2023-03-03T14:41:42.121Z,36.94
2023-03-03T14:44:27.832Z,37.00
2023-03-03T14:47:07.191Z,36.93
2023-03-03T14:49:36.855Z,36.85
2023-03-03T14:52:20.003Z,37.01
2023-03-03T14:54:49.689Z,37.09
2023-03-03T14:57:19.247Z,37.12
2023-03-03T15:00:01.062Z,37.23
2023-03-03T15:02:37.944Z,37.25
2023-03-03T15:05:24.112Z,37.66
2023-03-03T15:07:56.838Z,37.88
2023-03-03T15:10:31.114Z,38.06
2023-03-03T15:13:00.251Z,38.08
2023-03-03T15:15:30.108Z,37.96
2023-03-03T15:18:02.678Z,37.98
2023-03-03T15:20:44.005Z,37.77
2023-03-03T15:23:41.250Z,38.03
2023-03-03T15:26:13.140Z,37.81
2023-03-03T15:28:52.391Z,37.94
2023-03-03T15:31:30.285Z,37.78
2023-03-03T15:36:38.814Z,38.40
2023-03-03T15:39:17.944Z,38.72
2023-03-03T15:41:54.329Z,38.62
2023-03-03T15:44:27.752Z,38.12
2023-03-03T15:47:13.211Z,38.04
2023-03-03T15:50:06.167Z,38.11
2023-03-03T15:52:45.082Z,38.14
2023-03-03T15:55:28.199Z,37.85
2023-03-03T15:58:09.558Z,37.00
2023-03-03T16:00:46.667Z,37.64
2023-03-03T16:03:18.093Z,37.65
2023-03-03T16:05:53.811Z,37.71
2023-03-03T16:08:27.267Z,37.84
2023-03-03T16:11:05.204Z,38.00
2023-03-03T16:13:47.408Z,38.47
2023-03-03T16:16:30.073Z,38.08
2023-03-03T16:19:12.972Z,37.85
2023-03-03T16:22:05.054Z,38.18
2023-03-03T16:24:42.008Z,37.96
2023-03-03T16:27:16.549Z,37.64
2023-03-03T16:29:55.350Z,37.93
2023-03-03T16:32:28.192Z,37.88
2023-03-03T16:34:57.861Z,38.02
2023-03-03T16:37:31.969Z,37.97
2023-03-03T16:40:09.696Z,37.89
2023-03-03T16:42:39.853Z,37.80
2023-03-03T16:45:23.792Z,37.82
2023-03-03T16:48:10.071Z,37.57
2023-03-03T16:50:44.380Z,37.53
2023-03-03T16:53:22.642Z,37.67
2023-03-03T16:55:58.944Z,37.57
2023-03-03T16:58:38.922Z,37.46
2023-03-03T17:01:11.253Z,37.48
2023-03-03T17:03:55.628Z,37.27
2023-03-03T17:06:30.700Z,37.25
2023-03-03T17:09:32.048Z,37.37
2023-03-03T17:12:10.260Z,37.33
2023-03-03T17:14:54.266Z,37.24
2023-03-03T17:17:30.652Z,37.16
2023-03-03T17:20:08.597Z,37.36
2023-03-03T17:22:47.044Z,37.13
2023-03-03T17:25:21.463Z,37.14
2023-03-03T17:28:04.891Z,36.45
2023-03-03T17:30:39.009Z,37.06
2023-03-03T17:33:34.120Z,36.62
2023-03-03T17:36:18.383Z,36.72
2023-03-03T17:38:57.520Z,36.73
2023-03-03T17:41:28.388Z,37.01
2023-03-03T17:44:00.822Z,36.98
2023-03-03T17:46:35.365Z,37.04
2023-03-03T17:49:35.649Z,37.15
2023-03-03T17:52:30.935Z,37.27
2023-03-03T17:55:39.367Z,37.16
2023-03-03T17:58:44.890Z,37.15
2023-03-03T18:01:23.244Z,37.33
2023-03-03T18:04:25.316Z,37.49
2023-03-03T18:07:14.686Z,37.25
2023-03-03T18:10:30.163Z,37.38
2023-03-03T18:13:03.052Z,37.60
2023-03-03T18:18:54.782Z,37.58
2023-03-03T18:21:24.969Z,37.49
2023-03-03T18:23:53.557Z,37.57
2023-03-03T18:26:39.691Z,37.38
2023-03-03T18:29:28.305Z,37.44
2023-03-03T18:32:22.296Z,37.49
2023-03-03T18:34:52.648Z,37.45
2023-03-03T18:37:45.945Z,37.39
2023-03-03T18:40:30.884Z,37.53
2023-03-03T18:42:59.720Z,37.50
2023-03-03T18:45:51.519Z,37.56
2023-03-03T18:48:22.164Z,37.72
2023-03-03T18:50:52.546Z,37.78
2023-03-03T18:53:29.449Z,37.80
2023-03-03T18:55:59.112Z,37.73
2023-03-03T18:58:42.027Z,37.78
2023-03-03T19:04:22.687Z,37.71
2023-03-03T19:07:19.017Z,37.90
2023-03-03T19:09:58.329Z,37.94
2023-03-03T19:12:53.542Z,38.12
2023-03-03T19:15:50.536Z,37.95
2023-03-03T19:18:21.197Z,38.79
2023-03-03T19:20:54.739Z,38.25
2023-03-03T19:23:24.504Z,38.37
2023-03-03T19:26:47.412Z,38.61
2023-03-03T19:29:51.908Z,38.59
2023-03-03T19:32:32.420Z,38.75
2023-03-03T19:35:10.198Z,38.28
2023-03-03T19:37:45.176Z,38.44
2023-03-03T19:40:20.220Z,38.40
2023-03-03T19:42:58.735Z,38.27
2023-03-03T19:45:41.356Z,38.27
2023-03-03T19:48:18.388Z,38.29
2023-03-03T19:50:51.062Z,38.34
2023-03-03T19:53:27.118Z,39.55
2023-03-03T19:56:10.939Z,38.88
2023-03-03T20:01:19.461Z,38.77
2023-03-03T20:04:06.601Z,38.55
2023-03-03T20:06:52.689Z,38.66
2023-03-03T20:09:32.528Z,38.69
2023-03-03T20:12:31.262Z,38.83
2023-03-03T20:17:59.177Z,38.84
2023-03-03T20:23:22.404Z,38.66
2023-03-03T20:25:53.846Z,38.97
2023-03-03T20:29:09.829Z,38.81
2023-03-03T20:31:43.526Z,38.89
2023-03-03T20:34:16.423Z,38.79
2023-03-03T20:36:53.722Z,38.76
2023-03-03T20:39:40.172Z,38.75
2023-03-03T20:42:15.539Z,38.88
2023-03-03T20:44:57.401Z,39.23
2023-03-03T20:47:35.888Z,38.95
2023-03-03T20:50:15.697Z,38.98
2023-03-03T20:52:55.558Z,38.94
2023-03-03T20:55:28.487Z,38.86
2023-03-03T20:58:01.340Z,39.08
2023-03-03T21:00:33.284Z,38.80
2023-03-03T21:03:10.923Z,39.03
2023-03-03T21:05:54.719Z,39.87
2023-03-03T21:08:24.188Z,39.57
2023-03-03T21:10:57.960Z,39.36
2023-03-03T21:13:29.526Z,39.24
2023-03-03T21:15:58.679Z,39.10
2023-03-03T21:18:29.051Z,39.21
2023-03-03T21:20:57.648Z,39.18
2023-03-03T21:23:26.201Z,39.11
2023-03-03T21:25:55.108Z,39.11
2023-03-03T21:28:25.766Z,39.06
2023-03-03T21:31:05.768Z,39.06
2023-03-03T21:33:43.808Z,39.09
2023-03-03T21:36:12.768Z,38.90
2023-03-03T21:38:41.801Z,39.04
2023-03-03T21:41:10.708Z,38.98
2023-03-03T21:43:40.720Z,39.17
2023-03-03T21:46:09.684Z,38.96
2023-03-03T21:48:43.072Z,38.86
2023-03-03T21:51:14.021Z,39.08
2023-03-03T21:53:44.228Z,39.09
2023-03-03T21:56:13.955Z,39.11
2023-03-03T21:58:42.978Z,39.09
2023-03-03T22:01:11.978Z,39.35
2023-03-03T22:03:44.978Z,39.23
2023-03-03T22:06:13.872Z,39.22
2023-03-03T22:08:42.713Z,39.44
2023-03-03T22:11:11.481Z,39.41
2023-03-03T22:13:41.304Z,39.33
2023-03-03T22:16:11.977Z,39.16
2023-03-03T22:18:41.935Z,39.28
2023-03-03T22:21:10.750Z,39.10
2023-03-03T22:23:39.503Z,39.33
2023-03-03T22:26:08.082Z,39.22
2023-03-03T22:28:36.916Z,39.25
2023-03-03T22:31:05.926Z,39.21
2023-03-03T22:33:34.761Z,39.36
2023-03-03T22:36:05.108Z,39.00
2023-03-03T22:38:33.649Z,39.04
2023-03-03T22:41:02.683Z,39.59
2023-03-03T22:43:31.525Z,39.27
2023-03-03T22:46:00.186Z,39.13
2023-03-03T22:48:29.200Z,39.06
2023-03-03T22:50:57.777Z,39.16
2023-03-03T22:53:27.731Z,38.94
2023-03-03T22:55:56.548Z,39.07
2023-03-03T22:58:26.248Z,39.09
2023-03-03T23:00:54.922Z,38.98
2023-03-03T23:03:23.807Z,38.99
2023-03-03T23:05:52.804Z,38.96
2023-03-03T23:08:21.870Z,38.92
2023-03-03T23:10:51.864Z,39.09
2023-03-03T23:13:20.594Z,39.00
2023-03-03T23:15:49.109Z,38.86
2023-03-03T23:18:17.633Z,38.91
2023-03-03T23:20:46.430Z,38.85
2023-03-03T23:25:43.813Z,38.90
2023-03-03T23:30:44.299Z,38.95
2023-03-03T23:33:12.985Z,38.96
2023-03-03T23:35:41.644Z,38.93
2023-03-03T23:38:15.333Z,38.92
2023-03-03T23:40:44.566Z,38.82
2023-03-03T23:43:14.759Z,38.89
2023-03-03T23:45:43.533Z,38.92
2023-03-03T23:48:12.084Z,39.30
2023-03-03T23:50:40.848Z,38.89
2023-03-03T23:55:37.912Z,38.88
2023-03-03T23:58:06.653Z,38.81
